createdAt,value
2019-04-29T00:01:50.595Z,100874.33
2019-04-29T00:04:23.275Z,100881.94
2019-04-29T00:06:55.992Z,100875.92
2019-04-29T00:09:31.010Z,100885.03
2019-04-29T00:12:03.200Z,100885.24
2019-04-29T00:14:37.769Z,100883.47
2019-04-29T00:17:13.225Z,100884.48
2019-04-29T00:19:50.150Z,100883.92
2019-04-29T00:22:22.750Z,100883.22
2019-04-29T00:24:55.235Z,100881.42
2019-04-29T00:27:28.275Z,100873.83
2019-04-29T00:30:00.950Z,100868.55
2019-04-29T00:32:33.880Z,100871.30
2019-04-29T00:35:08.172Z,100880.10
2019-04-29T00:37:55.525Z,100872.98
2019-04-29T00:40:30.565Z,100881.17
2019-04-29T00:43:20.895Z,100872.06
2019-04-29T00:45:53.640Z,100864.99
2019-04-29T00:48:26.310Z,100867.56
2019-04-29T00:50:59.092Z,100865.09
2019-04-29T00:53:31.704Z,100863.77
2019-04-29T00:56:05.175Z,100855.61
2019-04-29T00:58:37.585Z,100864.32
2019-04-29T01:01:14.006Z,100859.06
2019-04-29T01:03:46.684Z,100864.23
2019-04-29T01:06:19.475Z,100862.09
2019-04-29T01:08:51.940Z,100857.29
2019-04-29T01:11:24.725Z,100860.37
2019-04-29T01:13:57.376Z,100855.02
2019-04-29T01:16:30.096Z,100855.02
2019-04-29T01:19:03.969Z,100847.53
2019-04-29T01:21:36.801Z,100848.30
2019-04-29T01:24:09.537Z,100844.71
2019-04-29T01:26:49.910Z,100847.08
2019-04-29T01:29:24.214Z,100843.19
2019-04-29T01:31:57.422Z,100847.53
2019-04-29T01:34:31.640Z,100841.32
2019-04-29T01:37:04.255Z,100836.46
2019-04-29T01:39:43.960Z,100833.92
2019-04-29T01:42:18.286Z,100832.97
2019-04-29T01:44:50.835Z,100832.05
2019-04-29T01:47:23.424Z,100825.94
2019-04-29T01:49:56.060Z,100825.84
2019-04-29T01:52:28.599Z,100821.99
2019-04-29T01:55:01.241Z,100820.48
2019-04-29T01:57:33.714Z,100822.75
2019-04-29T02:00:12.244Z,100817.86
2019-04-29T02:02:43.975Z,100808.55
2019-04-29T02:05:16.490Z,100808.49
2019-04-29T02:07:48.955Z,100812.99
2019-04-29T02:10:23.272Z,100809.11
2019-04-29T02:12:55.922Z,100818.51
2019-04-29T02:15:28.600Z,100823.12
2019-04-29T02:18:01.106Z,100816.54
2019-04-29T02:20:34.946Z,100814.31
2019-04-29T02:23:07.300Z,100820.79
2019-04-29T02:25:44.682Z,100812.99
2019-04-29T02:28:17.296Z,100817.86
2019-04-29T02:30:53.245Z,100807.44
2019-04-29T02:33:25.888Z,100808.84
2019-04-29T02:35:58.826Z,100804.80
2019-04-29T02:38:34.374Z,100796.91
2019-04-29T02:41:27.181Z,100798.42
2019-04-29T02:44:01.396Z,100802.27
2019-04-29T02:46:34.132Z,100808.08
2019-04-29T02:49:06.956Z,100808.94
2019-04-29T02:51:44.300Z,100805.91
2019-04-29T02:54:16.970Z,100806.37
2019-04-29T02:57:02.933Z,100804.59
2019-04-29T02:59:55.545Z,100791.35
2019-04-29T03:02:30.082Z,100792.30
2019-04-29T03:05:04.797Z,100781.02
2019-04-29T03:07:37.472Z,100781.12
2019-04-29T03:10:10.376Z,100773.33
2019-04-29T03:12:43.006Z,100762.05
2019-04-29T03:15:19.970Z,100757.34
2019-04-29T03:17:53.741Z,100765.14
2019-04-29T03:20:28.055Z,100765.23
2019-04-29T03:23:14.246Z,100771.80
2019-04-29T03:25:47.031Z,100767.46
2019-04-29T03:28:19.751Z,100774.89
2019-04-29T03:30:52.370Z,100771.05
2019-04-29T03:33:25.125Z,100769.89
2019-04-29T03:35:58.060Z,100778.36
2019-04-29T03:38:31.625Z,100778.73
2019-04-29T03:41:04.319Z,100771.03
2019-04-29T03:43:37.001Z,100780.50
2019-04-29T03:46:09.607Z,100769.22
2019-04-29T03:48:42.464Z,100770.53
2019-04-29T03:51:14.939Z,100771.03
2019-04-29T03:53:47.500Z,100757.33
2019-04-29T03:56:20.091Z,100757.78
2019-04-29T03:58:52.847Z,100764.81
2019-04-29T04:01:27.012Z,100766.13
2019-04-29T04:04:03.977Z,100768.86
2019-04-29T04:06:38.130Z,100768.86
2019-04-29T04:09:19.575Z,100770.17
2019-04-29T04:11:52.170Z,100775.13
2019-04-29T04:14:24.911Z,100774.27
2019-04-29T04:16:59.255Z,100772.80
2019-04-29T04:19:33.635Z,100765.58
2019-04-29T04:22:06.185Z,100765.01
2019-04-29T04:24:39.031Z,100768.40
2019-04-29T04:27:11.616Z,100780.50
2019-04-29T04:29:44.310Z,100782.21
2019-04-29T04:32:17.156Z,100769.06
2019-04-29T04:34:50.173Z,100769.89
2019-04-29T04:37:23.028Z,100777.60
2019-04-29T04:39:56.836Z,100775.23
2019-04-29T04:42:30.096Z,100766.13
2019-04-29T04:45:02.998Z,100776.55
2019-04-29T04:47:35.689Z,100777.31
2019-04-29T04:50:09.035Z,100778.53
2019-04-29T04:52:41.590Z,100781.77
2019-04-29T04:55:14.720Z,100778.59
2019-04-29T04:57:47.585Z,100782.13
2019-04-29T05:00:22.478Z,100775.86
2019-04-29T05:02:55.975Z,100770.96
2019-04-29T05:05:28.524Z,100756.99
2019-04-29T05:08:01.298Z,100759.89
2019-04-29T05:10:34.010Z,100765.15
2019-04-29T05:13:06.470Z,100753.97
2019-04-29T05:15:39.441Z,100757.76
2019-04-29T05:18:12.157Z,100750.98
2019-04-29T05:20:44.924Z,100753.62
2019-04-29T05:23:17.475Z,100746.03
2019-04-29T05:25:50.155Z,100750.34
2019-04-29T05:28:22.775Z,100745.28
2019-04-29T05:30:55.515Z,100751.80
2019-04-29T05:33:27.918Z,100744.85
2019-04-29T05:36:07.700Z,100757.81
2019-04-29T05:38:41.790Z,100749.18
2019-04-29T05:41:14.680Z,100735.16
2019-04-29T05:43:49.179Z,100741.38
2019-04-29T05:46:27.381Z,100753.88
2019-04-29T05:49:02.496Z,100762.25
2019-04-29T05:51:35.909Z,100765.14
2019-04-29T05:54:10.019Z,100760.17
2019-04-29T05:56:42.842Z,100764.29
2019-04-29T05:59:15.419Z,100763.63
2019-04-29T06:01:48.980Z,100761.20
2019-04-29T06:04:21.585Z,100768.60
2019-04-29T06:06:54.345Z,100769.92
2019-04-29T06:09:26.925Z,100762.52
2019-04-29T06:11:59.633Z,100767.48
2019-04-29T06:14:32.498Z,100766.83
2019-04-29T06:17:07.692Z,100763.44
2019-04-29T06:19:41.041Z,100766.17
2019-04-29T06:22:13.920Z,100760.15
2019-04-29T06:24:46.779Z,100776.59
2019-04-29T06:27:19.552Z,100789.19
2019-04-29T06:29:52.333Z,100792.09
2019-04-29T06:32:26.387Z,100795.21
2019-04-29T06:34:59.669Z,100801.30
2019-04-29T06:37:32.320Z,100797.94
2019-04-29T06:40:06.770Z,100792.19
2019-04-29T06:42:39.612Z,100789.69
2019-04-29T06:45:12.369Z,100790.05
2019-04-29T06:47:45.195Z,100791.92
2019-04-29T06:50:18.694Z,100795.67
2019-04-29T06:52:51.584Z,100794.85
2019-04-29T06:55:24.336Z,100794.26
2019-04-29T06:57:57.025Z,100796.53
2019-04-29T07:00:29.640Z,100791.27
2019-04-29T07:03:02.504Z,100781.69
2019-04-29T07:05:35.105Z,100769.19
2019-04-29T07:08:08.014Z,100764.95
2019-04-29T07:10:40.336Z,100759.78
2019-04-29T07:13:12.875Z,100763.55
2019-04-29T07:15:47.758Z,100751.71
2019-04-29T07:18:19.394Z,100750.47
2019-04-29T07:20:51.875Z,100738.45
2019-04-29T07:23:24.455Z,100743.64
2019-04-29T07:25:57.174Z,100746.34
2019-04-29T07:28:29.924Z,100750.03
2019-04-29T07:31:03.151Z,100748.87
2019-04-29T07:33:35.835Z,100760.06
2019-04-29T07:36:11.275Z,100754.63
2019-04-29T07:38:46.528Z,100767.20
2019-04-29T07:41:19.030Z,100762.33
2019-04-29T07:43:50.275Z,100766.17
2019-04-29T07:46:24.176Z,100772.15
2019-04-29T07:49:01.791Z,100769.88
2019-04-29T07:51:30.635Z,100778.88
2019-04-29T07:54:03.154Z,100774.34
2019-04-29T07:56:37.866Z,100778.55
2019-04-29T07:59:11.325Z,100776.54
2019-04-29T08:01:44.074Z,100776.83
2019-04-29T08:04:16.554Z,100780.04
2019-04-29T08:06:50.097Z,100777.80
2019-04-29T08:09:22.516Z,100773.80
2019-04-29T08:11:55.215Z,100782.64
2019-04-29T08:14:28.377Z,100781.50
2019-04-29T08:17:00.955Z,100777.16
2019-04-29T08:19:33.374Z,100779.11
2019-04-29T08:22:05.835Z,100782.53
2019-04-29T08:24:38.375Z,100784.20
2019-04-29T08:27:11.016Z,100788.30
2019-04-29T08:29:45.055Z,100783.53
2019-04-29T08:32:17.415Z,100788.73
2019-04-29T08:34:53.598Z,100786.45
2019-04-29T08:37:24.993Z,100782.37
2019-04-29T08:40:14.750Z,100785.02
2019-04-29T08:42:46.675Z,100785.88
2019-04-29T08:45:34.804Z,100784.05
2019-04-29T08:48:08.005Z,100781.17
2019-04-29T08:50:40.385Z,100770.69
2019-04-29T08:53:12.986Z,100772.80
2019-04-29T08:55:45.385Z,100772.69
2019-04-29T08:58:17.868Z,100768.00
2019-04-29T09:00:51.453Z,100771.19
2019-04-29T09:03:24.505Z,100751.48
2019-04-29T09:06:05.005Z,100767.51
2019-04-29T09:08:32.839Z,100761.53
2019-04-29T09:11:08.121Z,100755.44
2019-04-29T09:13:39.607Z,100751.60
2019-04-29T09:16:12.085Z,100763.75
2019-04-29T09:18:44.590Z,100767.00
2019-04-29T09:21:17.024Z,100763.18
2019-04-29T09:23:50.645Z,100760.59
2019-04-29T09:26:32.485Z,100764.16
2019-04-29T09:29:23.145Z,100762.24
2019-04-29T09:31:55.705Z,100755.73
2019-04-29T09:34:28.286Z,100751.66
2019-04-29T09:37:00.872Z,100752.91
2019-04-29T09:39:42.889Z,100750.43
2019-04-29T09:42:22.685Z,100742.03
2019-04-29T09:44:59.845Z,100745.37
2019-04-29T09:47:33.925Z,100742.40
2019-04-29T09:50:10.229Z,100742.42
2019-04-29T09:52:42.705Z,100733.80
2019-04-29T09:55:16.999Z,100728.47
2019-04-29T09:57:49.625Z,100725.95
2019-04-29T10:00:26.172Z,100722.88
2019-04-29T10:03:05.966Z,100723.28
2019-04-29T10:05:48.385Z,100712.01
2019-04-29T10:08:20.905Z,100710.71
2019-04-29T10:10:53.367Z,100708.29
2019-04-29T10:13:25.826Z,100708.06
2019-04-29T10:16:11.786Z,100698.59
2019-04-29T10:18:50.166Z,100706.33
2019-04-29T10:21:23.449Z,100697.87
2019-04-29T10:23:56.625Z,100695.56
2019-04-29T10:26:28.966Z,100693.61
2019-04-29T10:29:05.968Z,100686.86
2019-04-29T10:31:38.445Z,100689.41
2019-04-29T10:34:12.765Z,100687.32
2019-04-29T10:36:45.265Z,100684.42
2019-04-29T10:39:35.465Z,100681.95
2019-04-29T10:42:09.525Z,100685.81
2019-04-29T10:44:59.610Z,100679.25
2019-04-29T10:47:36.425Z,100664.86
2019-04-29T10:50:15.428Z,100674.08
2019-04-29T10:52:49.525Z,100680.98
2019-04-29T10:55:25.591Z,100678.30
2019-04-29T10:57:56.925Z,100665.37
2019-04-29T11:00:57.316Z,100669.77
2019-04-29T11:03:27.284Z,100663.86
2019-04-29T11:06:01.958Z,100672.24
2019-04-29T11:08:46.345Z,100669.25
2019-04-29T11:11:23.227Z,100656.16
2019-04-29T11:13:57.674Z,100662.84
2019-04-29T11:16:45.307Z,100672.81
2019-04-29T11:19:05.456Z,100667.69
2019-04-29T11:21:38.968Z,100663.52
2019-04-29T11:24:15.945Z,100663.47
2019-04-29T11:27:11.177Z,100659.06
2019-04-29T11:29:35.806Z,100649.14
2019-04-29T11:32:08.985Z,100649.40
2019-04-29T11:34:43.144Z,100652.66
2019-04-29T11:37:17.939Z,100655.11
2019-04-29T11:39:51.395Z,100657.66
2019-04-29T11:42:24.385Z,100663.80
2019-04-29T11:45:01.443Z,100657.96
2019-04-29T11:47:33.245Z,100653.87
2019-04-29T11:50:11.845Z,100650.24
2019-04-29T11:52:43.904Z,100651.33
2019-04-29T11:55:18.493Z,100652.31
2019-04-29T11:57:57.964Z,100653.27
2019-04-29T12:00:33.178Z,100642.53
2019-04-29T12:03:14.354Z,100639.95
2019-04-29T12:05:49.444Z,100626.48
2019-04-29T12:08:21.965Z,100631.17
2019-04-29T12:11:06.686Z,100624.99
2019-04-29T12:13:30.305Z,100623.97
2019-04-29T12:16:04.868Z,100626.89
2019-04-29T12:18:53.905Z,100631.59
2019-04-29T12:21:31.169Z,100621.23
2019-04-29T12:24:04.305Z,100615.84
2019-04-29T12:26:43.128Z,100623.97
2019-04-29T12:29:13.624Z,100621.09
2019-04-29T12:32:03.065Z,100619.14
2019-04-29T12:34:53.275Z,100615.30
2019-04-29T12:37:34.345Z,100606.69
2019-04-29T12:40:24.987Z,100610.64
2019-04-29T12:42:57.226Z,100602.25
2019-04-29T12:45:32.054Z,100601.90
2019-04-29T12:48:06.653Z,100601.06
2019-04-29T12:50:39.086Z,100597.23
2019-04-29T12:53:11.845Z,100599.59
2019-04-29T12:55:49.460Z,100578.67
2019-04-29T12:58:24.174Z,100593.58
2019-04-29T13:01:01.160Z,100595.25
2019-04-29T13:03:39.527Z,100589.56
2019-04-29T13:06:38.798Z,100590.56
2019-04-29T13:09:17.299Z,100598.23
2019-04-29T13:11:48.328Z,100594.57
2019-04-29T13:14:14.625Z,100594.08
2019-04-29T13:16:55.805Z,100587.05
2019-04-29T13:19:39.455Z,100589.53
2019-04-29T13:22:15.516Z,100589.89
2019-04-29T13:24:46.127Z,100582.44
2019-04-29T13:27:20.756Z,100589.53
2019-04-29T13:29:52.585Z,100589.43
2019-04-29T13:32:29.861Z,100585.80
2019-04-29T13:35:05.379Z,100582.02
2019-04-29T13:37:35.805Z,100583.86
2019-04-29T13:40:11.727Z,100578.66
2019-04-29T13:42:48.491Z,100581.65
2019-04-29T13:45:26.953Z,100578.13
2019-04-29T13:48:07.111Z,100577.00
2019-04-29T13:50:42.809Z,100571.97
2019-04-29T13:53:16.572Z,100571.63
2019-04-29T13:56:10.048Z,100571.27
2019-04-29T13:58:27.168Z,100562.23
2019-04-29T14:01:04.746Z,100563.92
2019-04-29T14:03:41.978Z,100568.27
2019-04-29T14:06:14.394Z,100560.09
2019-04-29T14:08:48.005Z,100557.92
2019-04-29T14:11:22.001Z,100554.05
2019-04-29T14:13:54.786Z,100557.59
2019-04-29T14:16:27.211Z,100559.59
2019-04-29T14:18:59.611Z,100556.89
2019-04-29T14:21:32.730Z,100552.04
2019-04-29T14:24:05.370Z,100547.68
2019-04-29T14:26:41.941Z,100544.82
2019-04-29T14:29:11.550Z,100551.02
2019-04-29T14:31:46.690Z,100549.52
2019-04-29T14:34:21.302Z,100549.88
2019-04-29T14:36:57.497Z,100553.05
2019-04-29T14:39:37.264Z,100560.25
2019-04-29T14:42:05.067Z,100550.71
2019-04-29T14:44:39.085Z,100546.38
2019-04-29T14:47:29.399Z,100550.89
2019-04-29T14:50:03.591Z,100543.49
2019-04-29T14:52:36.350Z,100549.20
2019-04-29T14:55:09.410Z,100541.98
2019-04-29T14:57:42.981Z,100546.03
2019-04-29T15:00:23.407Z,100535.14
2019-04-29T15:03:00.612Z,100529.28
2019-04-29T15:05:32.766Z,100529.42
2019-04-29T15:08:05.287Z,100533.12
2019-04-29T15:10:38.584Z,100534.95
2019-04-29T15:13:21.177Z,100534.11
2019-04-29T15:16:09.680Z,100539.86
2019-04-29T15:18:48.649Z,100535.31
2019-04-29T15:21:32.984Z,100529.64
2019-04-29T15:24:05.260Z,100535.98
2019-04-29T15:26:37.620Z,100536.83
2019-04-29T15:29:10.060Z,100538.52
2019-04-29T15:31:47.162Z,100530.48
2019-04-29T15:34:16.880Z,100531.97
2019-04-29T15:36:49.279Z,100529.45
2019-04-29T15:39:24.889Z,100539.33
2019-04-29T15:41:56.363Z,100525.41
2019-04-29T15:44:28.914Z,100531.97
2019-04-29T15:47:01.522Z,100535.51
2019-04-29T15:49:33.940Z,100530.63
2019-04-29T15:52:06.400Z,100538.14
2019-04-29T15:54:39.121Z,100523.72
2019-04-29T15:57:15.481Z,100529.25
2019-04-29T15:59:49.072Z,100530.42
2019-04-29T16:02:20.060Z,100530.89
2019-04-29T16:04:54.182Z,100524.38
2019-04-29T16:07:37.220Z,100524.56
2019-04-29T16:10:23.900Z,100529.25
2019-04-29T16:13:00.780Z,100533.27
2019-04-29T16:15:33.460Z,100530.22
2019-04-29T16:18:10.570Z,100524.86
2019-04-29T16:20:40.040Z,100530.23
2019-04-29T16:23:12.620Z,100528.34
2019-04-29T16:25:46.197Z,100531.34
2019-04-29T16:28:24.337Z,100533.85
2019-04-29T16:30:53.378Z,100518.16
2019-04-29T16:33:26.921Z,100523.98
2019-04-29T16:36:04.783Z,100529.31
2019-04-29T16:38:33.945Z,100531.16
2019-04-29T16:41:21.245Z,100526.79
2019-04-29T16:43:55.465Z,100536.78
2019-04-29T16:49:08.919Z,100534.07
2019-04-29T16:51:41.573Z,100536.53
2019-04-29T16:54:20.554Z,100531.61
2019-04-29T16:56:50.002Z,100538.10
2019-04-29T16:59:23.730Z,100539.22
2019-04-29T17:01:56.600Z,100537.34
2019-04-29T17:04:29.298Z,100546.50
2019-04-29T17:07:12.356Z,100538.78
2019-04-29T17:09:37.720Z,100554.73
2019-04-29T17:12:11.110Z,100545.52
2019-04-29T17:17:28.339Z,100551.02
2019-04-29T17:19:54.070Z,100553.80
2019-04-29T17:22:27.682Z,100553.89
2019-04-29T17:25:01.705Z,100565.53
2019-04-29T17:27:42.079Z,100572.96
2019-04-29T17:30:29.303Z,100573.88
2019-04-29T17:33:10.023Z,100568.25
2019-04-29T17:35:15.895Z,100539.93
2019-04-29T17:35:17.482Z,100552.29
2019-04-29T17:35:47.614Z,100589.80
2019-04-29T17:38:17.335Z,100588.05
2019-04-29T17:40:51.087Z,100592.09
2019-04-29T17:43:24.005Z,100587.78
2019-04-29T17:46:07.285Z,100602.81
2019-04-29T17:48:53.216Z,100599.92
2019-04-29T17:51:26.643Z,100605.92
2019-04-29T17:54:05.230Z,100605.77
2019-04-29T17:56:48.896Z,100613.27
2019-04-29T17:59:29.670Z,100620.10
2019-04-29T18:02:18.415Z,100627.14
2019-04-29T18:04:57.264Z,100631.78
2019-04-29T18:07:51.571Z,100625.39
2019-04-29T18:10:24.348Z,100630.58
2019-04-29T18:12:54.979Z,100637.00
2019-04-29T18:15:40.205Z,100645.28
2019-04-29T18:18:07.211Z,100642.47
2019-04-29T18:20:42.484Z,100643.67
2019-04-29T18:23:30.045Z,100643.99
2019-04-29T18:26:04.841Z,100646.01
2019-04-29T18:28:37.547Z,100648.39
2019-04-29T18:31:11.845Z,100644.52
2019-04-29T18:33:45.151Z,100661.06
2019-04-29T18:36:23.714Z,100663.38
2019-04-29T18:38:52.141Z,100670.69
2019-04-29T18:41:28.554Z,100671.45
2019-04-29T18:44:03.014Z,100675.23
2019-04-29T18:46:35.179Z,100674.34
2019-04-29T18:49:07.930Z,100676.05
2019-04-29T18:51:40.295Z,100673.95
2019-04-29T18:54:12.896Z,100680.73
2019-04-29T18:56:45.678Z,100681.39
2019-04-29T18:59:21.265Z,100685.55
2019-04-29T19:01:52.841Z,100687.91
2019-04-29T19:04:25.663Z,100691.03
2019-04-29T19:07:02.085Z,100698.28
2019-04-29T19:09:35.842Z,100698.02
2019-04-29T19:12:09.150Z,100703.46
2019-04-29T19:14:42.052Z,100701.25
2019-04-29T19:17:16.160Z,100708.89
2019-04-29T19:19:50.420Z,100710.48
2019-04-29T19:22:23.280Z,100714.60
2019-04-29T19:24:55.995Z,100717.25
2019-04-29T19:27:30.569Z,100714.01
2019-04-29T19:30:05.331Z,100723.92
2019-04-29T19:32:39.080Z,100719.25
2019-04-29T19:35:12.320Z,100722.30
2019-04-29T19:37:45.426Z,100724.70
2019-04-29T19:40:19.170Z,100714.83
2019-04-29T19:42:51.855Z,100715.91
2019-04-29T19:45:24.665Z,100714.48
2019-04-29T19:47:57.480Z,100717.89
2019-04-29T19:50:31.384Z,100708.88
2019-04-29T19:53:04.909Z,100720.45
2019-04-29T19:55:42.248Z,100717.67
2019-04-29T19:58:14.725Z,100725.63
2019-04-29T20:00:48.808Z,100724.19
2019-04-29T20:03:25.133Z,100722.65
2019-04-29T20:06:08.451Z,100717.35
2019-04-29T20:08:50.883Z,100724.89
2019-04-29T20:11:14.161Z,100730.78
2019-04-29T20:13:46.804Z,100722.36
2019-04-29T20:16:42.795Z,100720.19
2019-04-29T20:19:16.455Z,100725.02
2019-04-29T20:21:43.263Z,100726.55
2019-04-29T20:24:17.909Z,100728.72
2019-04-29T20:26:51.261Z,100727.27
2019-04-29T20:29:28.603Z,100717.52
2019-04-29T20:31:58.958Z,100724.13
2019-04-29T20:34:32.256Z,100725.70
2019-04-29T20:37:06.065Z,100726.63
2019-04-29T20:39:39.341Z,100727.21
2019-04-29T20:42:12.240Z,100727.32
2019-04-29T20:44:48.817Z,100728.51
2019-04-29T20:47:23.285Z,100728.02
2019-04-29T20:49:54.444Z,100739.17
2019-04-29T20:52:36.205Z,100730.84
2019-04-29T20:55:09.752Z,100741.66
2019-04-29T20:57:42.755Z,100764.12
2019-04-29T21:00:20.236Z,100770.12
2019-04-29T21:02:50.712Z,100773.80
2019-04-29T21:05:24.924Z,100776.84
2019-04-29T21:08:03.541Z,100783.57
2019-04-29T21:10:32.429Z,100788.83
2019-04-29T21:13:15.164Z,100795.99
2019-04-29T21:16:00.162Z,100806.30
2019-04-29T21:18:32.770Z,100790.24
2019-04-29T21:21:07.880Z,100789.11
2019-04-29T21:23:40.050Z,100804.46
2019-04-29T21:26:12.569Z,100808.85
2019-04-29T21:28:47.025Z,100795.84
2019-04-29T21:31:20.164Z,100806.94
2019-04-29T21:33:57.450Z,100817.11
2019-04-29T21:36:30.966Z,100816.20
2019-04-29T21:39:22.851Z,100820.12
2019-04-29T21:41:58.649Z,100798.00
2019-04-29T21:44:29.684Z,100800.20
2019-04-29T21:47:06.628Z,100813.94
2019-04-29T21:49:45.322Z,100817.73
2019-04-29T21:52:12.064Z,100818.52
2019-04-29T21:54:49.127Z,100811.23
2019-04-29T21:57:23.899Z,100807.90
2019-04-29T21:59:53.179Z,100808.84
2019-04-29T22:02:26.159Z,100806.42
2019-04-29T22:04:59.054Z,100811.98
2019-04-29T22:07:31.534Z,100808.25
2019-04-29T22:10:05.256Z,100807.91
2019-04-29T22:12:38.976Z,100819.24
2019-04-29T22:15:15.802Z,100820.27
2019-04-29T22:17:56.431Z,100808.52
2019-04-29T22:20:23.116Z,100804.13
2019-04-29T22:22:56.002Z,100803.20
2019-04-29T22:25:28.880Z,100813.22
2019-04-29T22:28:01.760Z,100812.18
2019-04-29T22:30:35.425Z,100815.12
2019-04-29T22:33:08.714Z,100819.37
2019-04-29T22:35:41.169Z,100816.11
2019-04-29T22:38:16.267Z,100803.41
2019-04-29T22:40:48.350Z,100798.89
2019-04-29T22:43:40.323Z,100799.66
2019-04-29T22:46:12.156Z,100799.22
2019-04-29T22:48:48.420Z,100797.06
2019-04-29T22:51:19.425Z,100801.08
2019-04-29T22:53:52.085Z,100792.17
2019-04-29T22:56:27.612Z,100792.83
2019-04-29T22:58:59.221Z,100791.49
2019-04-29T23:01:32.061Z,100796.67
2019-04-29T23:04:05.277Z,100791.78
2019-04-29T23:06:39.895Z,100793.56
2019-04-29T23:09:13.194Z,100794.22
2019-04-29T23:11:47.539Z,100796.16
2019-04-29T23:14:20.059Z,100797.88
2019-04-29T23:16:52.785Z,100799.56
2019-04-29T23:19:26.011Z,100791.77
2019-04-29T23:22:22.159Z,100788.64
2019-04-29T23:25:01.752Z,100783.38
2019-04-29T23:27:36.054Z,100787.78
2019-04-29T23:30:13.694Z,100784.64
2019-04-29T23:32:47.513Z,100785.50
2019-04-29T23:35:19.412Z,100783.67
2019-04-29T23:37:51.991Z,100786.14
2019-04-29T23:40:24.785Z,100781.69
2019-04-29T23:42:57.526Z,100776.72
2019-04-29T23:45:30.235Z,100773.48
2019-04-29T23:48:02.860Z,100768.57
2019-04-29T23:50:36.013Z,100771.39
2019-04-29T23:53:08.695Z,100769.97
2019-04-29T23:55:41.365Z,100769.00
2019-04-29T23:58:32.728Z,100763.16
